Impacts TAF Board INFO
FOR SITUATIONAL AWARENESS. NOT TO BE USED FOR FLIGHT PLANNING PURPOSES.
IDs:

KTPA - Tampa Intl Arpt, FL, US

Issued at 0259 UTC 22 Nov 2017
Updated at 0329 UTC 22 Nov 2017
Potential Impact None Slight Moderate High
Time0253Z 22/04Z 22/05Z 22/06Z 22/07Z 22/08Z 22/09Z 22/10Z 22/11Z 22/12Z 22/13Z 22/14Z 22/15Z 22/16Z>>
Type OBS PRVL PRVL PRVL PRVL PRVL PRVL
  [TEMP]  
PRVL
  [TEMP]  
PRVL
  [TEMP]  
PRVL
  [TEMP]  
PRVL PRVL PRVL PRVL
VIS 10 >6 >6 >6 >6 5 5
  [2]  
5
  [2]  
5
  [2]  
5
  [2]  
5 5 >6 >6
CIG -- -- -- -- -- -- --
  [5]  
--
  [5]  
--
  [5]  
--
  [5]  
-- -- -- --
Cover CLR SKC SKC SKC SKC SCT SCT
  [BKN]  
SCT
  [BKN]  
SCT
  [BKN]  
SCT
  [BKN]  
SCT SCT SCT SCT
FltCat VFR VFR VFR VFR VFR MVFR MVFR
  [IFR]  
MVFR
  [IFR]  
MVFR
  [IFR]  
MVFR
  [IFR]  
MVFR MVFR VFR VFR
WX -- -- -- -- -- BR BR
  [BR]  
BR
  [BR]  
BR
  [BR]  
BR
  [BR]  
BR BR -- --
WDir 80 VRB VRB VRB VRB VRB VRB
[VRB]
VRB
[VRB]
VRB
[VRB]
VRB
[VRB]
VRB VRB VRB VRB
WSpd 3 3 3 3 3 3 3
  [3]  
3
  [3]  
3
  [3]  
3
  [3]  
3 3 3 3
WGst -- -- -- -- -- -- --
  [--]  
--
  [--]  
--
  [--]  
--
  [--]  
-- -- -- --

Raw TAF
KTPA 220259Z 2203/2306 VRB03KT P6SM SKC
  FM220800 VRB03KT 5SM BR SCT005 SCT250
  TEMPO 2209/2213 2SM BR BKN005
  FM221500 VRB03KT P6SM SCT020 SCT150
  FM221700 23005KT P6SM SCT035 SCT150
  FM222100 30006KT P6SM SCT040 BKN150
  FM230300 05005KT P6SM SCT040 BKN150


Raw METAR
KTPA 220253Z 08003KT 10SM CLR 21/18 A2997 RMK AO2 SLP148 T02110178 50008
KTPA 220153Z 03003KT 10SM FEW065 22/18 A2997 RMK AO2 SLP148 T02170178
KTPA 220053Z 00000KT 10SM SCT070 22/18 A2996 RMK AO2 SLP145 T02220178

METAR Board
Radar Display
Forecast Discussion

FOR SITUATIONAL AWARENESS. NOT TO BE USED FOR FLIGHT PLANNING PURPOSES.